createdAt,value
2018-06-21T19:07:45.079Z,16.35
2018-06-21T19:08:45.074Z,16.35
2018-06-21T19:10:38.641Z,16.37
2018-06-21T19:11:38.017Z,16.33
2018-06-21T19:12:38.013Z,16.27
2018-06-21T19:13:38.016Z,16.35
2018-06-21T19:14:38.013Z,16.27
2018-06-21T19:15:38.022Z,16.23
2018-06-21T19:16:38.028Z,16.16
2018-06-21T19:17:38.033Z,16.06
2018-06-21T19:18:38.039Z,16.15
2018-06-21T19:19:38.033Z,16.07
2018-06-21T19:20:38.039Z,16.07
2018-06-21T19:21:38.090Z,16.07
2018-06-21T19:22:38.056Z,16.04
2018-06-21T19:23:38.048Z,16.03
2018-06-21T19:24:38.057Z,16.03
2018-06-21T19:25:38.070Z,16.00
2018-06-21T19:26:38.057Z,16.00
2018-06-21T19:27:38.085Z,16.06
2018-06-21T19:28:38.065Z,16.04
2018-06-21T19:29:38.076Z,16.01
2018-06-21T19:30:38.082Z,16.03
2018-06-21T19:31:38.120Z,16.12
2018-06-21T19:32:38.084Z,16.12
2018-06-21T19:33:38.081Z,16.00
2018-06-21T19:34:38.085Z,15.96
2018-06-21T19:35:38.088Z,15.96
2018-06-21T19:36:38.173Z,15.96
2018-06-21T19:37:38.096Z,15.96
2018-06-21T19:38:38.105Z,15.96
2018-06-21T19:39:39.017Z,15.93
2018-06-21T19:40:38.104Z,15.84
2018-06-21T19:41:38.111Z,15.84
2018-06-21T19:42:38.106Z,15.78
2018-06-21T19:43:38.112Z,15.74
2018-06-21T19:44:38.120Z,15.72
2018-06-21T19:45:38.129Z,15.64
2018-06-21T19:46:38.130Z,15.63
2018-06-21T19:47:38.139Z,15.63
2018-06-21T19:48:38.131Z,15.61
2018-06-21T19:49:38.140Z,15.48
2018-06-21T19:50:38.142Z,15.38
2018-06-21T19:51:38.138Z,15.42
2018-06-21T19:52:38.143Z,15.30
2018-06-21T19:53:38.145Z,15.27
2018-06-21T19:54:38.154Z,15.26
2018-06-21T19:55:38.152Z,15.12
2018-06-21T19:56:38.154Z,15.13
2018-06-21T19:57:38.163Z,15.03
2018-06-21T19:58:38.161Z,15.11
2018-06-21T19:59:38.165Z,15.11
2018-06-21T20:00:38.172Z,15.05
2018-06-21T20:01:38.170Z,15.08
2018-06-21T20:02:38.178Z,15.06
2018-06-21T20:03:38.173Z,15.03
2018-06-21T20:04:38.176Z,15.05
2018-06-21T20:05:38.183Z,15.02
2018-06-21T20:06:38.178Z,15.02
2018-06-21T20:07:38.192Z,15.05
2018-06-21T20:08:38.187Z,14.95
2018-06-21T20:09:38.186Z,14.99
2018-06-21T20:10:38.201Z,14.99
2018-06-21T20:11:38.196Z,14.94
2018-06-21T20:12:38.247Z,14.99
2018-06-21T20:13:38.211Z,15.01
2018-06-21T20:14:38.200Z,14.93
2018-06-21T20:15:38.220Z,14.94
2018-06-21T20:16:38.205Z,14.86
2018-06-21T20:17:38.219Z,14.90
2018-06-21T20:18:38.219Z,14.81
2018-06-21T20:19:38.222Z,14.88
2018-06-21T20:20:38.239Z,14.84
2018-06-21T20:21:38.225Z,14.90
2018-06-21T20:22:38.230Z,14.86
2018-06-21T20:23:38.233Z,14.93
2018-06-21T20:24:38.242Z,14.86
2018-06-21T20:25:38.234Z,14.83
2018-06-21T20:26:38.242Z,14.86
2018-06-21T20:27:39.030Z,14.84
2018-06-21T20:28:38.247Z,14.88
2018-06-21T20:29:38.249Z,14.84
2018-06-21T20:30:38.245Z,14.88
2018-06-21T20:31:38.283Z,14.86
2018-06-21T20:32:38.264Z,14.83
2018-06-21T20:33:38.260Z,14.84
2018-06-21T20:34:38.264Z,14.72
2018-06-21T20:35:38.258Z,14.72
2018-06-21T20:36:38.264Z,14.71
2018-06-21T20:37:38.274Z,14.71
2018-06-21T20:38:38.266Z,14.81
2018-06-21T20:39:38.285Z,14.75
2018-06-21T20:40:38.269Z,14.91
2018-06-21T20:41:38.274Z,14.86
2018-06-21T20:42:38.282Z,14.75
2018-06-21T20:43:38.276Z,14.87
2018-06-21T20:44:38.319Z,14.81
2018-06-21T20:45:38.291Z,14.72
2018-06-21T20:46:38.296Z,14.81
2018-06-21T20:47:39.032Z,14.81
2018-06-21T20:48:38.305Z,14.83
2018-06-21T20:49:38.295Z,14.71
2018-06-21T20:50:38.308Z,14.80
2018-06-21T20:51:38.302Z,14.78
2018-06-21T20:52:38.361Z,14.75
2018-06-21T20:53:38.303Z,14.64
2018-06-21T20:54:38.311Z,14.68
2018-06-21T20:55:38.316Z,14.61
2018-06-21T20:56:38.321Z,14.68
2018-06-21T20:57:38.313Z,14.61
2018-06-21T20:58:38.326Z,14.65
2018-06-21T20:59:38.320Z,14.52
2018-06-21T21:00:38.330Z,14.52
2018-06-21T21:01:38.340Z,14.47
2018-06-21T21:02:38.326Z,14.42
2018-06-21T21:03:38.351Z,14.49
2018-06-21T21:04:38.329Z,14.46
2018-06-21T21:05:38.335Z,14.50
2018-06-21T21:06:38.342Z,14.38
2018-06-21T21:07:38.336Z,14.42
2018-06-21T21:08:38.350Z,14.42
2018-06-21T21:09:38.350Z,14.42
2018-06-21T21:10:38.352Z,14.46
2018-06-21T21:11:38.358Z,14.46
2018-06-21T21:12:38.349Z,14.43
2018-06-21T21:13:38.352Z,14.32
2018-06-21T21:14:38.354Z,14.39
2018-06-21T21:15:38.355Z,14.29
2018-06-21T21:16:38.412Z,14.25
2018-06-21T21:17:38.361Z,14.19
2018-06-21T21:18:38.366Z,14.21
2018-06-21T21:19:38.371Z,14.13
2018-06-21T21:20:38.372Z,14.09
2018-06-21T21:21:38.375Z,14.09
2018-06-21T21:22:38.377Z,14.06
2018-06-21T21:23:38.386Z,14.13
2018-06-21T21:24:38.377Z,14.06
2018-06-21T21:25:38.390Z,14.12
2018-06-21T21:26:38.384Z,14.06
2018-06-21T21:27:38.395Z,14.04
2018-06-21T21:28:38.510Z,14.04
2018-06-21T21:29:38.397Z,14.07
2018-06-21T21:30:38.404Z,13.98
2018-06-21T21:31:38.408Z,13.98
2018-06-21T21:32:38.406Z,14.07
2018-06-21T21:33:38.415Z,14.09
2018-06-21T21:34:38.413Z,14.01
2018-06-21T21:35:38.410Z,14.07
2018-06-21T21:36:38.412Z,14.02
2018-06-21T21:37:38.410Z,13.95
2018-06-21T21:38:38.451Z,13.98
2018-06-21T21:39:38.425Z,13.94
2018-06-21T21:40:38.434Z,14.02
2018-06-21T21:41:38.445Z,13.99
2018-06-21T21:42:38.433Z,14.01
2018-06-21T21:43:38.424Z,13.94
2018-06-21T21:44:38.431Z,13.88
2018-06-21T21:45:38.440Z,13.98
2018-06-21T21:46:38.451Z,13.91
2018-06-21T21:47:38.468Z,13.91
2018-06-21T21:48:38.435Z,13.88
2018-06-21T21:49:38.437Z,13.80
2018-06-21T21:50:38.446Z,13.80
2018-06-21T21:51:38.445Z,13.84
2018-06-21T21:52:38.474Z,13.84
2018-06-21T21:53:38.447Z,13.87
2018-06-21T21:54:38.458Z,13.76
2018-06-21T21:55:38.453Z,13.81
2018-06-21T21:56:38.458Z,13.84
2018-06-21T21:57:38.470Z,13.79
2018-06-21T21:58:38.456Z,13.76
2018-06-21T21:59:38.462Z,13.70
2018-06-21T22:00:38.464Z,13.69
2018-06-21T22:01:38.462Z,13.67
2018-06-21T22:02:39.051Z,13.67
2018-06-21T22:03:38.472Z,13.71
2018-06-21T22:05:31.953Z,13.83
2018-06-21T22:06:31.416Z,13.77
2018-06-21T22:08:24.340Z,13.83
2018-06-21T22:09:24.321Z,13.91
2018-06-21T22:11:17.307Z,13.91
2018-06-21T22:12:17.274Z,13.92
2018-06-21T22:14:21.934Z,13.98
2018-06-21T22:15:21.914Z,13.94
2018-06-21T22:17:14.889Z,13.99
2018-06-21T22:18:14.873Z,14.07
2018-06-21T22:20:07.831Z,14.09
2018-06-21T22:21:07.816Z,14.10
2018-06-21T22:23:00.813Z,14.09
2018-06-21T22:24:00.788Z,14.10
2018-06-21T22:25:53.741Z,14.21
2018-06-21T22:26:53.741Z,14.14
2018-06-21T22:28:46.746Z,14.13
2018-06-21T22:29:46.697Z,14.25
2018-06-21T22:31:39.662Z,14.10
2018-06-21T22:32:39.655Z,14.21
2018-06-21T22:34:44.309Z,14.09
2018-06-21T22:35:44.279Z,14.07
2018-06-21T22:37:37.256Z,14.09
2018-06-21T22:38:37.233Z,14.12
2018-06-21T22:40:30.236Z,14.12
2018-06-21T22:41:30.193Z,14.10
2018-06-21T22:43:23.206Z,14.12
2018-06-21T22:44:23.157Z,14.20
2018-06-21T22:46:16.121Z,14.14
2018-06-21T22:47:16.104Z,14.16
2018-06-21T22:49:09.097Z,14.14
2018-06-21T22:50:09.115Z,14.12
2018-06-21T22:52:02.029Z,14.09
2018-06-21T22:53:02.027Z,14.13
2018-06-21T22:54:55.014Z,14.12
2018-06-21T22:55:54.974Z,14.13
2018-06-21T22:57:47.940Z,14.13
2018-06-21T22:58:47.938Z,14.21
2018-06-21T23:00:40.919Z,14.13
2018-06-21T23:01:40.887Z,14.10
2018-06-21T23:02:40.897Z,14.13
2018-06-21T23:03:40.906Z,14.13
2018-06-21T23:04:40.899Z,14.12
2018-06-21T23:05:40.908Z,14.16
2018-06-21T23:06:40.907Z,14.10
2018-06-21T23:07:40.909Z,14.12
2018-06-21T23:08:40.908Z,14.02
2018-06-21T23:09:40.916Z,14.13
2018-06-21T23:10:40.909Z,14.12
2018-06-21T23:11:40.921Z,14.10
2018-06-21T23:12:40.918Z,14.14
2018-06-21T23:13:40.924Z,14.16
2018-06-21T23:14:40.988Z,14.25
2018-06-21T23:15:40.932Z,14.25
2018-06-21T23:16:40.927Z,14.10
2018-06-21T23:17:40.933Z,14.12
2018-06-21T23:18:40.942Z,14.10
2018-06-21T23:19:40.940Z,14.16
2018-06-21T23:21:33.917Z,14.12
2018-06-21T23:22:33.887Z,14.12
2018-06-21T23:24:27.375Z,14.12
2018-06-21T23:25:26.848Z,14.10
2018-06-21T23:27:19.809Z,14.09
2018-06-21T23:28:19.806Z,14.07
2018-06-21T23:30:12.795Z,14.06
2018-06-21T23:31:12.765Z,13.98
2018-06-21T23:33:05.716Z,13.98
2018-06-21T23:34:05.722Z,13.96
2018-06-21T23:35:58.702Z,13.98
2018-06-21T23:36:58.672Z,13.92
2018-06-21T23:38:51.636Z,13.95
2018-06-21T23:39:51.636Z,13.91
2018-06-21T23:41:44.615Z,13.95
2018-06-21T23:42:44.599Z,13.91
2018-06-21T23:44:37.544Z,13.81
2018-06-21T23:45:37.552Z,13.95
2018-06-21T23:47:30.533Z,13.88
2018-06-21T23:48:30.497Z,13.87
2018-06-21T23:50:23.467Z,13.77
2018-06-21T23:51:23.453Z,13.84
2018-06-21T23:53:16.442Z,13.74
2018-06-21T23:54:16.422Z,13.81
2018-06-21T23:56:09.398Z,13.76
2018-06-21T23:57:09.378Z,13.77
2018-06-21T23:59:02.338Z,13.71
